sensor_id;sensor_type;location;lat;lon;timestamp;P1;durP1;ratioP1;P2;durP2;ratioP2
18100;SDS011;9177;49.156;8.142;2023-01-31T00:00:25;1.90;;;1.67;;
18100;SDS011;9177;49.156;8.142;2023-01-31T00:02:52;2.20;;;1.70;;
18100;SDS011;9177;49.156;8.142;2023-01-31T00:05:19;2.80;;;1.87;;
18100;SDS011;9177;49.156;8.142;2023-01-31T00:07:45;2.00;;;1.80;;
18100;SDS011;9177;49.156;8.142;2023-01-31T00:10:13;2.10;;;1.70;;
18100;SDS011;9177;49.156;8.142;2023-01-31T00:12:39;1.70;;;1.60;;
18100;SDS011;9177;49.156;8.142;2023-01-31T00:15:07;2.33;;;1.63;;
18100;SDS011;9177;49.156;8.142;2023-01-31T00:17:36;1.73;;;1.57;;
18100;SDS011;9177;49.156;8.142;2023-01-31T00:20:03;1.90;;;1.70;;
18100;SDS011;9177;49.156;8.142;2023-01-31T00:22:30;2.10;;;1.90;;
18100;SDS011;9177;49.156;8.142;2023-01-31T00:24:57;1.83;;;1.73;;
18100;SDS011;9177;49.156;8.142;2023-01-31T00:27:24;2.03;;;1.80;;
18100;SDS011;9177;49.156;8.142;2023-01-31T00:29:51;2.80;;;1.80;;
18100;SDS011;9177;49.156;8.142;2023-01-31T00:32:18;2.03;;;1.57;;
18100;SDS011;9177;49.156;8.142;2023-01-31T00:34:46;2.43;;;2.07;;
18100;SDS011;9177;49.156;8.142;2023-01-31T00:37:12;2.60;;;1.83;;
18100;SDS011;9177;49.156;8.142;2023-01-31T00:39:39;2.10;;;1.80;;
18100;SDS011;9177;49.156;8.142;2023-01-31T00:42:06;2.00;;;1.90;;
18100;SDS011;9177;49.156;8.142;2023-01-31T00:44:33;2.07;;;1.70;;
18100;SDS011;9177;49.156;8.142;2023-01-31T00:47:00;2.13;;;1.60;;
18100;SDS011;9177;49.156;8.142;2023-01-31T00:49:27;2.40;;;1.80;;
18100;SDS011;9177;49.156;8.142;2023-01-31T00:51:55;3.13;;;1.80;;
18100;SDS011;9177;49.156;8.142;2023-01-31T00:54:22;1.80;;;1.70;;
18100;SDS011;9177;49.156;8.142;2023-01-31T00:56:48;3.00;;;2.20;;
18100;SDS011;9177;49.156;8.142;2023-01-31T00:59:15;1.97;;;1.63;;
18100;SDS011;9177;49.156;8.142;2023-01-31T01:01:42;1.97;;;1.77;;
18100;SDS011;9177;49.156;8.142;2023-01-31T01:04:09;2.10;;;1.80;;
18100;SDS011;9177;49.156;8.142;2023-01-31T01:06:37;2.33;;;2.00;;
18100;SDS011;9177;49.156;8.142;2023-01-31T01:09:06;1.87;;;1.67;;
18100;SDS011;9177;49.156;8.142;2023-01-31T01:11:33;3.13;;;2.03;;
18100;SDS011;9177;49.156;8.142;2023-01-31T01:14:00;2.23;;;1.70;;
18100;SDS011;9177;49.156;8.142;2023-01-31T01:16:30;2.80;;;1.80;;
18100;SDS011;9177;49.156;8.142;2023-01-31T01:18:59;2.27;;;1.60;;
18100;SDS011;9177;49.156;8.142;2023-01-31T01:21:28;2.10;;;1.70;;
18100;SDS011;9177;49.156;8.142;2023-01-31T01:23:56;2.10;;;1.90;;
18100;SDS011;9177;49.156;8.142;2023-01-31T01:26:26;2.63;;;1.77;;
18100;SDS011;9177;49.156;8.142;2023-01-31T01:28:56;2.10;;;1.90;;
18100;SDS011;9177;49.156;8.142;2023-01-31T01:31:24;2.07;;;1.70;;
18100;SDS011;9177;49.156;8.142;2023-01-31T01:33:54;2.03;;;1.80;;
18100;SDS011;9177;49.156;8.142;2023-01-31T01:36:22;2.07;;;1.80;;
18100;SDS011;9177;49.156;8.142;2023-01-31T01:38:50;2.40;;;1.90;;
18100;SDS011;9177;49.156;8.142;2023-01-31T01:41:18;2.70;;;1.60;;
18100;SDS011;9177;49.156;8.142;2023-01-31T01:43:47;2.00;;;1.70;;
18100;SDS011;9177;49.156;8.142;2023-01-31T01:46:16;2.70;;;1.77;;
18100;SDS011;9177;49.156;8.142;2023-01-31T01:48:47;1.90;;;1.70;;
18100;SDS011;9177;49.156;8.142;2023-01-31T01:51:17;2.37;;;1.57;;
18100;SDS011;9177;49.156;8.142;2023-01-31T01:53:45;2.73;;;2.00;;
18100;SDS011;9177;49.156;8.142;2023-01-31T01:56:16;2.00;;;1.60;;
18100;SDS011;9177;49.156;8.142;2023-01-31T01:58:52;2.17;;;1.97;;
18100;SDS011;9177;49.156;8.142;2023-01-31T02:01:23;2.47;;;1.63;;
18100;SDS011;9177;49.156;8.142;2023-01-31T02:03:54;1.83;;;1.73;;
18100;SDS011;9177;49.156;8.142;2023-01-31T02:06:20;2.10;;;1.63;;
18100;SDS011;9177;49.156;8.142;2023-01-31T02:08:48;2.73;;;1.60;;
18100;SDS011;9177;49.156;8.142;2023-01-31T02:11:17;2.27;;;1.90;;
18100;SDS011;9177;49.156;8.142;2023-01-31T02:13:49;1.87;;;1.60;;
18100;SDS011;9177;49.156;8.142;2023-01-31T02:16:18;2.70;;;1.70;;
18100;SDS011;9177;49.156;8.142;2023-01-31T02:18:45;1.97;;;1.70;;
18100;SDS011;9177;49.156;8.142;2023-01-31T02:24:24;2.33;;;1.90;;
18100;SDS011;9177;49.156;8.142;2023-01-31T02:27:20;2.07;;;1.87;;
18100;SDS011;9177;49.156;8.142;2023-01-31T02:35:55;1.87;;;1.73;;
18100;SDS011;9177;49.156;8.142;2023-01-31T02:38:31;1.77;;;1.53;;
18100;SDS011;9177;49.156;8.142;2023-01-31T02:41:08;2.50;;;1.90;;
18100;SDS011;9177;49.156;8.142;2023-01-31T02:43:43;2.57;;;1.80;;
18100;SDS011;9177;49.156;8.142;2023-01-31T02:46:35;2.60;;;1.83;;
18100;SDS011;9177;49.156;8.142;2023-01-31T02:49:15;2.40;;;2.20;;
18100;SDS011;9177;49.156;8.142;2023-01-31T02:51:59;2.70;;;1.90;;
18100;SDS011;9177;49.156;8.142;2023-01-31T02:54:49;2.30;;;1.87;;
18100;SDS011;9177;49.156;8.142;2023-01-31T02:57:39;3.63;;;1.70;;
18100;SDS011;9177;49.156;8.142;2023-01-31T03:00:08;2.37;;;2.00;;
18100;SDS011;9177;49.156;8.142;2023-01-31T03:02:37;2.37;;;1.93;;
18100;SDS011;9177;49.156;8.142;2023-01-31T03:05:05;3.07;;;2.10;;
18100;SDS011;9177;49.156;8.142;2023-01-31T03:07:33;2.57;;;1.90;;
18100;SDS011;9177;49.156;8.142;2023-01-31T03:10:13;2.90;;;1.90;;
18100;SDS011;9177;49.156;8.142;2023-01-31T03:12:49;2.40;;;1.97;;
18100;SDS011;9177;49.156;8.142;2023-01-31T03:15:31;2.23;;;1.80;;
18100;SDS011;9177;49.156;8.142;2023-01-31T03:18:36;1.67;;;1.53;;
18100;SDS011;9177;49.156;8.142;2023-01-31T03:21:11;2.53;;;2.10;;
18100;SDS011;9177;49.156;8.142;2023-01-31T03:23:41;2.97;;;2.20;;
18100;SDS011;9177;49.156;8.142;2023-01-31T03:26:13;3.43;;;1.90;;
18100;SDS011;9177;49.156;8.142;2023-01-31T03:28:44;2.47;;;1.97;;
18100;SDS011;9177;49.156;8.142;2023-01-31T03:31:18;2.50;;;2.03;;
18100;SDS011;9177;49.156;8.142;2023-01-31T03:33:50;2.83;;;2.00;;
18100;SDS011;9177;49.156;8.142;2023-01-31T03:36:23;2.13;;;1.90;;
18100;SDS011;9177;49.156;8.142;2023-01-31T03:38:56;2.40;;;2.10;;
18100;SDS011;9177;49.156;8.142;2023-01-31T03:41:41;2.10;;;1.90;;
18100;SDS011;9177;49.156;8.142;2023-01-31T03:44:14;2.80;;;1.97;;
18100;SDS011;9177;49.156;8.142;2023-01-31T03:46:50;1.90;;;1.70;;
18100;SDS011;9177;49.156;8.142;2023-01-31T03:49:20;2.80;;;1.83;;
18100;SDS011;9177;49.156;8.142;2023-01-31T03:51:52;2.60;;;1.97;;
18100;SDS011;9177;49.156;8.142;2023-01-31T03:54:24;2.53;;;1.90;;
18100;SDS011;9177;49.156;8.142;2023-01-31T03:56:53;2.73;;;2.10;;
18100;SDS011;9177;49.156;8.142;2023-01-31T03:59:24;2.77;;;2.10;;
18100;SDS011;9177;49.156;8.142;2023-01-31T04:01:54;3.03;;;2.37;;
18100;SDS011;9177;49.156;8.142;2023-01-31T04:04:24;2.20;;;2.00;;
18100;SDS011;9177;49.156;8.142;2023-01-31T04:06:58;2.83;;;2.10;;
18100;SDS011;9177;49.156;8.142;2023-01-31T04:09:25;3.00;;;2.30;;
18100;SDS011;9177;49.156;8.142;2023-01-31T04:11:52;4.13;;;2.30;;
18100;SDS011;9177;49.156;8.142;2023-01-31T04:14:19;2.87;;;2.20;;
18100;SDS011;9177;49.156;8.142;2023-01-31T04:16:46;2.17;;;1.97;;
18100;SDS011;9177;49.156;8.142;2023-01-31T04:19:12;2.77;;;2.40;;
18100;SDS011;9177;49.156;8.142;2023-01-31T04:21:39;2.50;;;2.30;;
18100;SDS011;9177;49.156;8.142;2023-01-31T04:24:07;3.10;;;2.17;;
18100;SDS011;9177;49.156;8.142;2023-01-31T04:26:34;3.33;;;2.20;;
18100;SDS011;9177;49.156;8.142;2023-01-31T04:29:01;2.63;;;2.37;;
18100;SDS011;9177;49.156;8.142;2023-01-31T04:31:28;3.00;;;2.57;;
18100;SDS011;9177;49.156;8.142;2023-01-31T04:33:55;2.57;;;2.20;;
18100;SDS011;9177;49.156;8.142;2023-01-31T04:36:23;3.10;;;2.20;;
18100;SDS011;9177;49.156;8.142;2023-01-31T04:38:50;3.03;;;2.40;;
18100;SDS011;9177;49.156;8.142;2023-01-31T04:41:18;3.03;;;2.30;;
18100;SDS011;9177;49.156;8.142;2023-01-31T04:43:45;2.70;;;2.07;;
18100;SDS011;9177;49.156;8.142;2023-01-31T04:46:12;3.00;;;2.30;;
18100;SDS011;9177;49.156;8.142;2023-01-31T04:48:39;3.30;;;2.37;;
18100;SDS011;9177;49.156;8.142;2023-01-31T04:51:06;2.93;;;2.27;;
18100;SDS011;9177;49.156;8.142;2023-01-31T04:53:33;2.67;;;2.40;;
18100;SDS011;9177;49.156;8.142;2023-01-31T04:56:06;3.00;;;2.27;;
18100;SDS011;9177;49.156;8.142;2023-01-31T04:58:34;2.93;;;2.33;;
18100;SDS011;9177;49.156;8.142;2023-01-31T05:01:01;2.80;;;2.30;;
18100;SDS011;9177;49.156;8.142;2023-01-31T05:03:28;3.47;;;2.57;;
18100;SDS011;9177;49.156;8.142;2023-01-31T05:06:04;2.63;;;2.40;;
18100;SDS011;9177;49.156;8.142;2023-01-31T05:08:32;2.93;;;2.37;;
18100;SDS011;9177;49.156;8.142;2023-01-31T05:10:59;3.90;;;2.80;;
18100;SDS011;9177;49.156;8.142;2023-01-31T05:13:27;2.97;;;2.20;;
18100;SDS011;9177;49.156;8.142;2023-01-31T05:15:57;3.60;;;2.30;;
18100;SDS011;9177;49.156;8.142;2023-01-31T05:18:24;2.47;;;2.20;;
18100;SDS011;9177;49.156;8.142;2023-01-31T05:20:51;3.87;;;2.40;;
18100;SDS011;9177;49.156;8.142;2023-01-31T05:23:18;2.83;;;2.00;;
18100;SDS011;9177;49.156;8.142;2023-01-31T05:25:47;2.70;;;2.23;;
18100;SDS011;9177;49.156;8.142;2023-01-31T05:28:15;2.37;;;2.07;;
18100;SDS011;9177;49.156;8.142;2023-01-31T05:30:42;2.83;;;2.30;;
18100;SDS011;9177;49.156;8.142;2023-01-31T05:33:10;3.33;;;2.40;;
18100;SDS011;9177;49.156;8.142;2023-01-31T05:35:37;2.37;;;2.00;;
18100;SDS011;9177;49.156;8.142;2023-01-31T05:38:06;3.20;;;2.40;;
18100;SDS011;9177;49.156;8.142;2023-01-31T05:40:33;3.17;;;2.70;;
18100;SDS011;9177;49.156;8.142;2023-01-31T05:43:00;3.43;;;2.30;;
18100;SDS011;9177;49.156;8.142;2023-01-31T05:45:28;3.20;;;2.23;;
18100;SDS011;9177;49.156;8.142;2023-01-31T05:47:55;4.53;;;2.57;;
18100;SDS011;9177;49.156;8.142;2023-01-31T05:50:23;2.43;;;2.23;;
18100;SDS011;9177;49.156;8.142;2023-01-31T05:52:52;3.53;;;2.10;;
18100;SDS011;9177;49.156;8.142;2023-01-31T05:55:20;2.77;;;2.40;;
18100;SDS011;9177;49.156;8.142;2023-01-31T05:57:47;4.00;;;2.30;;
18100;SDS011;9177;49.156;8.142;2023-01-31T06:00:14;3.00;;;2.40;;
18100;SDS011;9177;49.156;8.142;2023-01-31T06:02:42;3.10;;;2.40;;
18100;SDS011;9177;49.156;8.142;2023-01-31T06:05:09;3.17;;;2.53;;
18100;SDS011;9177;49.156;8.142;2023-01-31T06:07:38;2.10;;;1.90;;
18100;SDS011;9177;49.156;8.142;2023-01-31T06:10:05;3.97;;;2.37;;
18100;SDS011;9177;49.156;8.142;2023-01-31T06:12:33;2.43;;;2.23;;
18100;SDS011;9177;49.156;8.142;2023-01-31T06:15:00;2.60;;;2.20;;
18100;SDS011;9177;49.156;8.142;2023-01-31T06:17:27;3.37;;;2.37;;
18100;SDS011;9177;49.156;8.142;2023-01-31T06:19:54;2.93;;;2.30;;
18100;SDS011;9177;49.156;8.142;2023-01-31T06:22:21;3.10;;;2.50;;
18100;SDS011;9177;49.156;8.142;2023-01-31T06:24:49;2.77;;;2.37;;
18100;SDS011;9177;49.156;8.142;2023-01-31T06:27:16;2.63;;;2.40;;
18100;SDS011;9177;49.156;8.142;2023-01-31T06:29:43;3.20;;;2.40;;
18100;SDS011;9177;49.156;8.142;2023-01-31T06:32:10;2.93;;;2.40;;
18100;SDS011;9177;49.156;8.142;2023-01-31T06:34:36;3.57;;;2.60;;
18100;SDS011;9177;49.156;8.142;2023-01-31T06:37:04;3.33;;;2.13;;
18100;SDS011;9177;49.156;8.142;2023-01-31T06:39:33;2.17;;;1.87;;
18100;SDS011;9177;49.156;8.142;2023-01-31T06:42:02;2.80;;;2.23;;
18100;SDS011;9177;49.156;8.142;2023-01-31T06:44:29;2.93;;;2.20;;
18100;SDS011;9177;49.156;8.142;2023-01-31T06:46:57;3.07;;;2.50;;
18100;SDS011;9177;49.156;8.142;2023-01-31T06:49:24;2.90;;;2.03;;
18100;SDS011;9177;49.156;8.142;2023-01-31T06:51:50;2.93;;;2.23;;
18100;SDS011;9177;49.156;8.142;2023-01-31T06:54:17;2.93;;;2.50;;
18100;SDS011;9177;49.156;8.142;2023-01-31T06:56:44;3.90;;;2.70;;
18100;SDS011;9177;49.156;8.142;2023-01-31T06:59:12;3.30;;;2.57;;
18100;SDS011;9177;49.156;8.142;2023-01-31T07:01:39;3.23;;;2.43;;
18100;SDS011;9177;49.156;8.142;2023-01-31T07:04:06;3.13;;;2.43;;
18100;SDS011;9177;49.156;8.142;2023-01-31T07:06:33;2.17;;;1.97;;
18100;SDS011;9177;49.156;8.142;2023-01-31T07:08:59;3.03;;;2.57;;
18100;SDS011;9177;49.156;8.142;2023-01-31T07:11:27;2.63;;;2.20;;
18100;SDS011;9177;49.156;8.142;2023-01-31T07:13:53;3.20;;;2.40;;
18100;SDS011;9177;49.156;8.142;2023-01-31T07:16:21;3.60;;;2.30;;
18100;SDS011;9177;49.156;8.142;2023-01-31T07:18:50;2.60;;;2.40;;
18100;SDS011;9177;49.156;8.142;2023-01-31T07:21:17;3.17;;;2.20;;
18100;SDS011;9177;49.156;8.142;2023-01-31T07:23:44;3.67;;;2.40;;
18100;SDS011;9177;49.156;8.142;2023-01-31T07:26:11;3.17;;;2.30;;
18100;SDS011;9177;49.156;8.142;2023-01-31T07:28:38;2.90;;;2.33;;
18100;SDS011;9177;49.156;8.142;2023-01-31T07:31:05;3.03;;;2.40;;
18100;SDS011;9177;49.156;8.142;2023-01-31T07:33:36;3.17;;;2.40;;
18100;SDS011;9177;49.156;8.142;2023-01-31T07:36:05;2.60;;;2.40;;
18100;SDS011;9177;49.156;8.142;2023-01-31T07:38:33;3.13;;;2.13;;
18100;SDS011;9177;49.156;8.142;2023-01-31T07:41:00;3.10;;;2.10;;
18100;SDS011;9177;49.156;8.142;2023-01-31T07:43:29;2.93;;;2.50;;
18100;SDS011;9177;49.156;8.142;2023-01-31T07:45:56;2.83;;;2.27;;
18100;SDS011;9177;49.156;8.142;2023-01-31T07:48:23;3.77;;;2.00;;
18100;SDS011;9177;49.156;8.142;2023-01-31T07:50:56;2.43;;;2.20;;
18100;SDS011;9177;49.156;8.142;2023-01-31T07:53:25;3.33;;;2.30;;
18100;SDS011;9177;49.156;8.142;2023-01-31T07:55:53;3.90;;;1.80;;
18100;SDS011;9177;49.156;8.142;2023-01-31T07:58:20;3.60;;;2.23;;
18100;SDS011;9177;49.156;8.142;2023-01-31T08:00:47;2.53;;;2.30;;
18100;SDS011;9177;49.156;8.142;2023-01-31T08:03:42;3.00;;;2.37;;
18100;SDS011;9177;49.156;8.142;2023-01-31T08:06:11;3.10;;;2.27;;
18100;SDS011;9177;49.156;8.142;2023-01-31T08:08:39;3.23;;;2.37;;
18100;SDS011;9177;49.156;8.142;2023-01-31T08:11:07;4.10;;;2.80;;
18100;SDS011;9177;49.156;8.142;2023-01-31T08:13:34;3.27;;;2.07;;
18100;SDS011;9177;49.156;8.142;2023-01-31T08:16:02;3.37;;;2.17;;
18100;SDS011;9177;49.156;8.142;2023-01-31T08:18:30;3.17;;;2.30;;
18100;SDS011;9177;49.156;8.142;2023-01-31T08:20:57;4.23;;;2.87;;
18100;SDS011;9177;49.156;8.142;2023-01-31T08:23:26;3.70;;;2.13;;
18100;SDS011;9177;49.156;8.142;2023-01-31T08:25:58;3.37;;;2.60;;
18100;SDS011;9177;49.156;8.142;2023-01-31T08:28:26;3.17;;;2.50;;
18100;SDS011;9177;49.156;8.142;2023-01-31T08:30:52;3.43;;;2.60;;
18100;SDS011;9177;49.156;8.142;2023-01-31T08:33:19;3.30;;;2.10;;
18100;SDS011;9177;49.156;8.142;2023-01-31T08:35:46;3.10;;;2.43;;
18100;SDS011;9177;49.156;8.142;2023-01-31T08:38:13;3.80;;;2.23;;
18100;SDS011;9177;49.156;8.142;2023-01-31T08:40:41;3.10;;;2.30;;
18100;SDS011;9177;49.156;8.142;2023-01-31T08:43:12;3.10;;;2.40;;
18100;SDS011;9177;49.156;8.142;2023-01-31T08:45:39;3.00;;;2.00;;
18100;SDS011;9177;49.156;8.142;2023-01-31T08:48:06;4.40;;;2.67;;
18100;SDS011;9177;49.156;8.142;2023-01-31T08:50:33;4.03;;;2.40;;
18100;SDS011;9177;49.156;8.142;2023-01-31T08:53:00;2.33;;;2.13;;
18100;SDS011;9177;49.156;8.142;2023-01-31T08:55:29;3.07;;;2.20;;
18100;SDS011;9177;49.156;8.142;2023-01-31T08:57:59;3.30;;;2.37;;
18100;SDS011;9177;49.156;8.142;2023-01-31T09:00:27;2.67;;;2.27;;
18100;SDS011;9177;49.156;8.142;2023-01-31T09:02:54;4.27;;;2.57;;
18100;SDS011;9177;49.156;8.142;2023-01-31T09:05:23;4.03;;;2.43;;
18100;SDS011;9177;49.156;8.142;2023-01-31T09:07:50;3.27;;;2.57;;
18100;SDS011;9177;49.156;8.142;2023-01-31T09:10:18;2.30;;;2.10;;
18100;SDS011;9177;49.156;8.142;2023-01-31T09:12:45;4.03;;;2.53;;
18100;SDS011;9177;49.156;8.142;2023-01-31T09:15:14;3.07;;;2.23;;
18100;SDS011;9177;49.156;8.142;2023-01-31T09:17:41;3.10;;;2.20;;
18100;SDS011;9177;49.156;8.142;2023-01-31T09:20:09;3.13;;;2.07;;
18100;SDS011;9177;49.156;8.142;2023-01-31T09:22:36;3.70;;;2.27;;
18100;SDS011;9177;49.156;8.142;2023-01-31T09:25:03;3.33;;;2.37;;
18100;SDS011;9177;49.156;8.142;2023-01-31T09:27:31;3.30;;;2.20;;
18100;SDS011;9177;49.156;8.142;2023-01-31T09:29:58;2.40;;;2.20;;
18100;SDS011;9177;49.156;8.142;2023-01-31T09:32:26;3.60;;;2.30;;
18100;SDS011;9177;49.156;8.142;2023-01-31T09:34:54;2.90;;;2.47;;
18100;SDS011;9177;49.156;8.142;2023-01-31T09:37:21;2.97;;;2.33;;
18100;SDS011;9177;49.156;8.142;2023-01-31T09:39:48;3.23;;;2.20;;
18100;SDS011;9177;49.156;8.142;2023-01-31T09:42:16;2.37;;;2.13;;
18100;SDS011;9177;49.156;8.142;2023-01-31T09:44:49;3.20;;;2.60;;
18100;SDS011;9177;49.156;8.142;2023-01-31T09:47:25;3.83;;;2.40;;
18100;SDS011;9177;49.156;8.142;2023-01-31T09:49:57;3.20;;;2.30;;
18100;SDS011;9177;49.156;8.142;2023-01-31T09:52:29;3.20;;;2.57;;
18100;SDS011;9177;49.156;8.142;2023-01-31T09:54:57;4.03;;;2.27;;
18100;SDS011;9177;49.156;8.142;2023-01-31T09:57:26;3.37;;;2.40;;
18100;SDS011;9177;49.156;8.142;2023-01-31T10:00:02;2.90;;;2.23;;
18100;SDS011;9177;49.156;8.142;2023-01-31T10:02:45;3.10;;;2.27;;
18100;SDS011;9177;49.156;8.142;2023-01-31T10:05:32;3.17;;;2.20;;
18100;SDS011;9177;49.156;8.142;2023-01-31T10:08:07;3.50;;;2.33;;
18100;SDS011;9177;49.156;8.142;2023-01-31T10:10:44;2.40;;;2.00;;
18100;SDS011;9177;49.156;8.142;2023-01-31T10:13:16;3.43;;;2.47;;
18100;SDS011;9177;49.156;8.142;2023-01-31T10:15:47;3.17;;;2.07;;
18100;SDS011;9177;49.156;8.142;2023-01-31T10:18:21;3.17;;;2.20;;
18100;SDS011;9177;49.156;8.142;2023-01-31T10:20:51;4.10;;;2.00;;
18100;SDS011;9177;49.156;8.142;2023-01-31T10:23:22;2.73;;;2.10;;
18100;SDS011;9177;49.156;8.142;2023-01-31T10:25:54;3.17;;;2.30;;
18100;SDS011;9177;49.156;8.142;2023-01-31T10:28:26;3.30;;;2.30;;
18100;SDS011;9177;49.156;8.142;2023-01-31T10:31:00;3.67;;;1.90;;
18100;SDS011;9177;49.156;8.142;2023-01-31T10:33:35;2.83;;;2.30;;
18100;SDS011;9177;49.156;8.142;2023-01-31T10:36:10;2.93;;;2.23;;
18100;SDS011;9177;49.156;8.142;2023-01-31T10:38:44;2.63;;;1.97;;
18100;SDS011;9177;49.156;8.142;2023-01-31T10:41:22;2.93;;;2.00;;
18100;SDS011;9177;49.156;8.142;2023-01-31T10:43:58;4.50;;;2.20;;
18100;SDS011;9177;49.156;8.142;2023-01-31T10:46:28;3.43;;;2.03;;
18100;SDS011;9177;49.156;8.142;2023-01-31T10:48:56;4.47;;;2.33;;
18100;SDS011;9177;49.156;8.142;2023-01-31T10:51:28;2.20;;;2.00;;
18100;SDS011;9177;49.156;8.142;2023-01-31T10:54:13;3.43;;;2.07;;
18100;SDS011;9177;49.156;8.142;2023-01-31T10:56:50;2.63;;;2.20;;
18100;SDS011;9177;49.156;8.142;2023-01-31T10:59:18;2.33;;;2.07;;
18100;SDS011;9177;49.156;8.142;2023-01-31T11:01:49;2.87;;;2.30;;
18100;SDS011;9177;49.156;8.142;2023-01-31T11:04:24;3.27;;;2.30;;
18100;SDS011;9177;49.156;8.142;2023-01-31T11:06:55;5.53;;;2.30;;
18100;SDS011;9177;49.156;8.142;2023-01-31T11:09:25;2.53;;;2.10;;
18100;SDS011;9177;49.156;8.142;2023-01-31T11:11:56;4.27;;;2.73;;
18100;SDS011;9177;49.156;8.142;2023-01-31T11:14:25;5.32;;;2.60;;
18100;SDS011;9177;49.156;8.142;2023-01-31T11:16:58;3.93;;;2.17;;
18100;SDS011;9177;49.156;8.142;2023-01-31T11:19:30;5.30;;;2.57;;
18100;SDS011;9177;49.156;8.142;2023-01-31T11:22:05;3.63;;;2.03;;
18100;SDS011;9177;49.156;8.142;2023-01-31T11:24:35;2.90;;;2.17;;
18100;SDS011;9177;49.156;8.142;2023-01-31T11:27:06;5.33;;;2.10;;
18100;SDS011;9177;49.156;8.142;2023-01-31T11:29:37;4.33;;;2.20;;
18100;SDS011;9177;49.156;8.142;2023-01-31T11:32:11;4.07;;;2.23;;
18100;SDS011;9177;49.156;8.142;2023-01-31T11:34:53;3.67;;;2.00;;
18100;SDS011;9177;49.156;8.142;2023-01-31T11:37:22;4.10;;;2.60;;
18100;SDS011;9177;49.156;8.142;2023-01-31T11:39:53;4.40;;;2.90;;
18100;SDS011;9177;49.156;8.142;2023-01-31T11:42:21;6.10;;;2.60;;
18100;SDS011;9177;49.156;8.142;2023-01-31T11:44:55;8.73;;;3.00;;
18100;SDS011;9177;49.156;8.142;2023-01-31T11:47:31;6.57;;;2.60;;
18100;SDS011;9177;49.156;8.142;2023-01-31T11:50:06;7.97;;;3.00;;
18100;SDS011;9177;49.156;8.142;2023-01-31T11:52:44;7.53;;;2.90;;
18100;SDS011;9177;49.156;8.142;2023-01-31T11:55:12;9.47;;;2.77;;
18100;SDS011;9177;49.156;8.142;2023-01-31T11:57:43;8.07;;;3.03;;
18100;SDS011;9177;49.156;8.142;2023-01-31T12:00:18;17.40;;;3.60;;
18100;SDS011;9177;49.156;8.142;2023-01-31T12:02:47;11.77;;;2.97;;
18100;SDS011;9177;49.156;8.142;2023-01-31T12:05:20;12.97;;;3.40;;
18100;SDS011;9177;49.156;8.142;2023-01-31T12:07:57;11.03;;;2.70;;
18100;SDS011;9177;49.156;8.142;2023-01-31T12:10:34;6.37;;;2.50;;
18100;SDS011;9177;49.156;8.142;2023-01-31T12:13:13;7.27;;;3.00;;
18100;SDS011;9177;49.156;8.142;2023-01-31T12:15:47;8.13;;;2.70;;
18100;SDS011;9177;49.156;8.142;2023-01-31T12:18:33;8.30;;;2.80;;
18100;SDS011;9177;49.156;8.142;2023-01-31T12:21:12;6.43;;;2.80;;
18100;SDS011;9177;49.156;8.142;2023-01-31T12:23:43;8.40;;;2.67;;
18100;SDS011;9177;49.156;8.142;2023-01-31T12:26:20;6.13;;;2.50;;
18100;SDS011;9177;49.156;8.142;2023-01-31T12:29:00;4.93;;;2.27;;
18100;SDS011;9177;49.156;8.142;2023-01-31T12:31:55;7.47;;;3.23;;
18100;SDS011;9177;49.156;8.142;2023-01-31T12:34:36;6.00;;;2.87;;
18100;SDS011;9177;49.156;8.142;2023-01-31T12:37:22;8.27;;;2.70;;
18100;SDS011;9177;49.156;8.142;2023-01-31T12:40:04;4.37;;;2.20;;
18100;SDS011;9177;49.156;8.142;2023-01-31T12:42:46;5.83;;;2.83;;
18100;SDS011;9177;49.156;8.142;2023-01-31T12:45:25;8.33;;;2.50;;
18100;SDS011;9177;49.156;8.142;2023-01-31T12:51:13;5.50;;;2.73;;
18100;SDS011;9177;49.156;8.142;2023-01-31T12:53:56;3.20;;;2.30;;
18100;SDS011;9177;49.156;8.142;2023-01-31T12:56:41;5.60;;;2.67;;
18100;SDS011;9177;49.156;8.142;2023-01-31T12:59:32;4.23;;;2.57;;
18100;SDS011;9177;49.156;8.142;2023-01-31T13:02:23;4.27;;;2.53;;
18100;SDS011;9177;49.156;8.142;2023-01-31T13:05:02;5.00;;;2.83;;
18100;SDS011;9177;49.156;8.142;2023-01-31T13:07:37;5.63;;;2.70;;
18100;SDS011;9177;49.156;8.142;2023-01-31T13:10:19;5.67;;;2.70;;
18100;SDS011;9177;49.156;8.142;2023-01-31T13:12:55;5.60;;;2.63;;
18100;SDS011;9177;49.156;8.142;2023-01-31T13:15:26;4.63;;;2.50;;
18100;SDS011;9177;49.156;8.142;2023-01-31T13:17:58;3.30;;;2.60;;
18100;SDS011;9177;49.156;8.142;2023-01-31T13:20:30;5.47;;;2.73;;
18100;SDS011;9177;49.156;8.142;2023-01-31T13:23:02;5.20;;;2.70;;
18100;SDS011;9177;49.156;8.142;2023-01-31T13:25:34;6.70;;;2.67;;
18100;SDS011;9177;49.156;8.142;2023-01-31T13:28:05;5.80;;;2.53;;
18100;SDS011;9177;49.156;8.142;2023-01-31T13:30:40;4.73;;;2.70;;
18100;SDS011;9177;49.156;8.142;2023-01-31T13:33:15;2.97;;;2.50;;
18100;SDS011;9177;49.156;8.142;2023-01-31T13:35:54;5.83;;;2.93;;
18100;SDS011;9177;49.156;8.142;2023-01-31T13:38:29;4.67;;;2.67;;
18100;SDS011;9177;49.156;8.142;2023-01-31T13:41:02;2.93;;;2.17;;
18100;SDS011;9177;49.156;8.142;2023-01-31T13:43:32;4.20;;;2.37;;
18100;SDS011;9177;49.156;8.142;2023-01-31T13:46:01;2.63;;;2.03;;
18100;SDS011;9177;49.156;8.142;2023-01-31T13:48:32;4.70;;;2.90;;
18100;SDS011;9177;49.156;8.142;2023-01-31T13:51:02;3.37;;;2.47;;
18100;SDS011;9177;49.156;8.142;2023-01-31T13:53:35;4.27;;;2.40;;
18100;SDS011;9177;49.156;8.142;2023-01-31T13:56:09;4.57;;;2.30;;
18100;SDS011;9177;49.156;8.142;2023-01-31T13:58:42;4.23;;;2.50;;
18100;SDS011;9177;49.156;8.142;2023-01-31T14:01:11;3.23;;;2.50;;
18100;SDS011;9177;49.156;8.142;2023-01-31T14:06:54;6.47;;;2.83;;
18100;SDS011;9177;49.156;8.142;2023-01-31T14:12:49;5.73;;;2.70;;
18100;SDS011;9177;49.156;8.142;2023-01-31T14:15:53;5.17;;;2.73;;
18100;SDS011;9177;49.156;8.142;2023-01-31T14:18:37;4.80;;;2.80;;
18100;SDS011;9177;49.156;8.142;2023-01-31T14:24:17;4.60;;;2.57;;
18100;SDS011;9177;49.156;8.142;2023-01-31T14:26:59;4.10;;;2.07;;
18100;SDS011;9177;49.156;8.142;2023-01-31T14:29:29;3.27;;;2.60;;
18100;SDS011;9177;49.156;8.142;2023-01-31T14:31:58;4.73;;;2.80;;
18100;SDS011;9177;49.156;8.142;2023-01-31T14:34:26;3.33;;;2.80;;
18100;SDS011;9177;49.156;8.142;2023-01-31T14:37:00;4.20;;;2.40;;
18100;SDS011;9177;49.156;8.142;2023-01-31T14:39:44;6.37;;;2.37;;
18100;SDS011;9177;49.156;8.142;2023-01-31T14:42:41;3.73;;;2.33;;
18100;SDS011;9177;49.156;8.142;2023-01-31T14:45:37;3.83;;;2.40;;
18100;SDS011;9177;49.156;8.142;2023-01-31T14:48:14;4.63;;;2.47;;
18100;SDS011;9177;49.156;8.142;2023-01-31T14:56:50;4.70;;;2.30;;
18100;SDS011;9177;49.156;8.142;2023-01-31T14:59:25;3.60;;;2.20;;
18100;SDS011;9177;49.156;8.142;2023-01-31T15:01:56;4.27;;;2.40;;
18100;SDS011;9177;49.156;8.142;2023-01-31T15:04:25;4.30;;;2.40;;
18100;SDS011;9177;49.156;8.142;2023-01-31T15:06:53;4.57;;;2.37;;
18100;SDS011;9177;49.156;8.142;2023-01-31T15:09:26;3.97;;;2.50;;
18100;SDS011;9177;49.156;8.142;2023-01-31T15:12:03;5.67;;;2.20;;
18100;SDS011;9177;49.156;8.142;2023-01-31T15:14:50;3.53;;;2.60;;
18100;SDS011;9177;49.156;8.142;2023-01-31T15:17:20;7.07;;;2.13;;
18100;SDS011;9177;49.156;8.142;2023-01-31T15:19:50;7.50;;;2.40;;
18100;SDS011;9177;49.156;8.142;2023-01-31T15:22:19;7.13;;;2.93;;
18100;SDS011;9177;49.156;8.142;2023-01-31T15:24:48;6.80;;;2.40;;
18100;SDS011;9177;49.156;8.142;2023-01-31T15:27:17;3.90;;;2.23;;
18100;SDS011;9177;49.156;8.142;2023-01-31T15:29:49;4.33;;;2.50;;
18100;SDS011;9177;49.156;8.142;2023-01-31T15:32:22;5.00;;;2.33;;
18100;SDS011;9177;49.156;8.142;2023-01-31T15:34:53;3.97;;;2.53;;
18100;SDS011;9177;49.156;8.142;2023-01-31T15:37:24;5.93;;;2.23;;
18100;SDS011;9177;49.156;8.142;2023-01-31T15:39:56;4.23;;;2.37;;
18100;SDS011;9177;49.156;8.142;2023-01-31T15:42:27;7.27;;;2.33;;
18100;SDS011;9177;49.156;8.142;2023-01-31T15:47:59;3.13;;;2.20;;
18100;SDS011;9177;49.156;8.142;2023-01-31T15:50:28;3.47;;;2.40;;
18100;SDS011;9177;49.156;8.142;2023-01-31T15:52:57;6.43;;;2.10;;
18100;SDS011;9177;49.156;8.142;2023-01-31T15:55:28;6.97;;;2.50;;